Time;durP1;ratioP1;P1;durP2;ratioP2;P2;SDS_P1;SDS_P2;PMS_P1;PMS_P2;Temp;Humidity;BMP_temperature;BMP_pressure;BME280_temperature;BME280_humidity;BME280_pressure;Samples;Min_cycle;Max_cycle;Signal;HPM_P1;HPM_P2
2022/08/28 00:02:32;;;;;;;14.80;6.63;;;;;;;;;;10461046;28;20013;-73
2022/08/28 00:07:33;;;;;;;15.13;7.30;;;;;;;;;;10458537;28;20051;-74
2022/08/28 00:12:34;;;;;;;15.13;5.95;;;;;;;;;;10453615;28;20267;-73
2022/08/28 00:17:34;;;;;;;28.08;9.25;;;;;;;;;;10452523;28;20110;-76
2022/08/28 00:22:37;;;;;;;15.05;6.53;;;;;;;;;;10453541;28;20048;-75
2022/08/28 00:27:52;;;;;;;11.98;6.75;;;;;;;;;;10452653;28;20060;-72
2022/08/28 00:32:53;;;;;;;12.60;5.90;;;;;;;;;;10453861;28;20036;-75
2022/08/28 00:37:56;;;;;;;17.38;6.55;;;;;;;;;;10452621;28;20051;-75
2022/08/28 00:42:57;;;;;;;13.63;6.80;;;;;;;;;;10451983;28;20116;-77
2022/08/28 00:47:58;;;;;;;14.73;5.55;;;;;;;;;;10452371;28;20025;-75
2022/08/28 00:52:59;;;;;;;10.35;6.18;;;;;;;;;;10452065;28;20023;-73
2022/08/28 00:57:59;;;;;;;14.68;6.85;;;;;;;;;;10451717;28;20013;-76
2022/08/28 01:02:59;;;;;;;13.75;5.93;;;;;;;;;;10451312;28;20025;-75
2022/08/28 01:08:00;;;;;;;16.65;6.00;;;;;;;;;;10453012;28;20013;-76
2022/08/28 01:13:01;;;;;;;21.45;6.00;;;;;;;;;;10451093;28;20021;-75
2022/08/28 01:18:04;;;;;;;19.20;6.00;;;;;;;;;;10450765;28;20178;-77
2022/08/28 01:23:23;;;;;;;12.73;6.75;;;;;;;;;;10450131;28;20029;-76
2022/08/28 01:28:24;;;;;;;17.20;6.43;;;;;;;;;;10450988;28;20538;-78
2022/08/28 01:33:24;;;;;;;14.38;6.15;;;;;;;;;;10450395;28;20027;-78
2022/08/28 01:38:24;;;;;;;13.93;6.70;;;;;;;;;;10451640;28;20047;-77
2022/08/28 01:43:26;;;;;;;15.10;7.47;;;;;;;;;;10450263;28;20402;-74
2022/08/28 01:48:28;;;;;;;15.52;7.50;;;;;;;;;;10450118;28;20025;-75
2022/08/28 01:53:28;;;;;;;12.73;6.82;;;;;;;;;;10449917;28;20052;-76
2022/08/28 01:58:29;;;;;;;15.73;7.60;;;;;;;;;;10450751;28;20051;-74
2022/08/28 02:03:29;;;;;;;25.13;6.95;;;;;;;;;;10449064;28;20483;-72
2022/08/28 02:08:30;;;;;;;14.55;6.47;;;;;;;;;;10449349;28;20049;-77
2022/08/28 02:13:30;;;;;;;12.45;6.47;;;;;;;;;;10448926;28;20078;-73
2022/08/28 02:18:31;;;;;;;13.93;7.20;;;;;;;;;;10448779;28;20427;-77
2022/08/28 02:23:31;;;;;;;12.32;6.43;;;;;;;;;;10448396;28;20171;-75
2022/08/28 02:28:31;;;;;;;20.13;7.55;;;;;;;;;;10448489;28;20032;-77
2022/08/28 02:33:32;;;;;;;11.10;6.40;;;;;;;;;;10447902;28;20024;-71
2022/08/28 02:38:33;;;;;;;21.40;6.80;;;;;;;;;;10448193;28;20031;-74
2022/08/28 02:43:33;;;;;;;14.73;7.22;;;;;;;;;;10447887;28;20407;-72
2022/08/28 02:48:35;;;;;;;18.80;8.02;;;;;;;;;;10431257;28;20024;-73
2022/08/28 02:53:35;;;;;;;16.88;7.53;;;;;;;;;;10447803;28;20021;-76
2022/08/28 02:58:36;;;;;;;13.15;6.80;;;;;;;;;;10448001;28;20020;-73
2022/08/28 03:03:38;;;;;;;11.60;7.18;;;;;;;;;;10447547;28;20115;-74
2022/08/28 03:08:40;;;;;;;14.65;7.78;;;;;;;;;;10447115;28;20115;-73
2022/08/28 03:13:41;;;;;;;19.00;6.90;;;;;;;;;;10449027;28;20046;-73
2022/08/28 03:18:41;;;;;;;15.63;7.18;;;;;;;;;;10448593;28;20041;-76
2022/08/28 03:23:41;;;;;;;13.07;6.17;;;;;;;;;;10432079;22;20081;-73
2022/08/28 03:28:46;;;;;;;21.23;7.90;;;;;;;;;;10423025;28;20022;-76
2022/08/28 03:33:46;;;;;;;15.65;6.93;;;;;;;;;;10405991;28;20021;-73
2022/08/28 03:38:47;;;;;;;13.93;6.72;;;;;;;;;;10405271;28;20014;-73
2022/08/28 03:43:47;;;;;;;18.30;7.25;;;;;;;;;;10408710;28;20026;-74
2022/08/28 03:48:49;;;;;;;17.70;8.40;;;;;;;;;;10413223;28;20079;-73
2022/08/28 03:53:49;;;;;;;13.68;7.07;;;;;;;;;;10412741;28;20060;-76
2022/08/28 03:58:50;;;;;;;20.80;8.40;;;;;;;;;;10429589;28;20036;-77
2022/08/28 04:03:51;;;;;;;22.02;8.60;;;;;;;;;;10429500;28;20029;-78
2022/08/28 04:08:51;;;;;;;12.73;6.82;;;;;;;;;;10412393;28;20400;-75
2022/08/28 04:13:51;;;;;;;19.05;6.90;;;;;;;;;;10413689;28;20476;-75
2022/08/28 04:18:51;;;;;;;18.52;7.15;;;;;;;;;;10412209;28;20048;-72
2022/08/28 04:23:52;;;;;;;11.77;6.50;;;;;;;;;;10411733;28;20139;-77
2022/08/28 04:28:53;;;;;;;15.13;7.03;;;;;;;;;;10412163;28;20025;-78
2022/08/28 04:33:54;;;;;;;15.15;6.90;;;;;;;;;;10428047;28;20071;-76
2022/08/28 04:38:56;;;;;;;17.67;7.30;;;;;;;;;;10411527;28;20191;-74
2022/08/28 04:43:56;;;;;;;12.93;7.15;;;;;;;;;;10411526;28;20033;-77
2022/08/28 04:48:57;;;;;;;14.23;8.18;;;;;;;;;;10411402;28;20036;-74
2022/08/28 04:53:58;;;;;;;14.15;7.40;;;;;;;;;;10410829;28;20913;-78
2022/08/28 04:58:59;;;;;;;11.68;7.90;;;;;;;;;;10410428;28;20156;-73
2022/08/28 05:04:01;;;;;;;14.07;6.93;;;;;;;;;;10410300;28;20022;-73
2022/08/28 05:09:02;;;;;;;14.63;7.28;;;;;;;;;;10410254;28;20480;-75
2022/08/28 05:14:04;;;;;;;14.18;6.20;;;;;;;;;;10409997;28;20501;-76
2022/08/28 05:19:04;;;;;;;15.77;6.10;;;;;;;;;;10409704;28;20040;-77
2022/08/28 05:24:05;;;;;;;12.98;6.60;;;;;;;;;;10409409;28;20064;-75
2022/08/28 05:29:06;;;;;;;13.55;6.47;;;;;;;;;;10409684;28;20033;-76
2022/08/28 05:34:06;;;;;;;17.55;6.30;;;;;;;;;;10408904;28;20121;-73
2022/08/28 05:39:08;;;;;;;20.98;6.95;;;;;;;;;;10409023;28;20021;-75
2022/08/28 05:44:10;;;;;;;13.18;6.22;;;;;;;;;;10408672;28;20392;-73
2022/08/28 05:49:12;;;;;;;14.63;6.53;;;;;;;;;;10410481;28;20029;-78
2022/08/28 05:54:14;;;;;;;27.38;6.82;;;;;;;;;;10409311;28;20033;-73
2022/08/28 05:59:15;;;;;;;13.55;5.32;;;;;;;;;;10424753;28;20010;-73
2022/08/28 06:04:21;;;;;;;8.55;4.95;;;;;;;;;;10391451;28;20030;-73
2022/08/28 06:09:23;;;;;;;20.35;5.80;;;;;;;;;;10408882;28;20052;-75
2022/08/28 06:14:24;;;;;;;10.30;5.30;;;;;;;;;;10407208;28;20033;-73
2022/08/28 06:19:26;;;;;;;18.83;5.70;;;;;;;;;;10408114;28;20581;-73
2022/08/28 06:24:27;;;;;;;15.57;5.82;;;;;;;;;;10408297;28;20033;-73
2022/08/28 06:29:28;;;;;;;18.73;5.45;;;;;;;;;;10406735;28;20021;-73
2022/08/28 06:34:28;;;;;;;19.58;5.50;;;;;;;;;;10407784;28;20128;-73
2022/08/28 06:39:29;;;;;;;15.98;5.35;;;;;;;;;;10406516;28;20483;-76
2022/08/28 06:44:30;;;;;;;13.98;4.90;;;;;;;;;;10407961;28;20514;-79
2022/08/28 06:49:31;;;;;;;14.35;5.28;;;;;;;;;;10423434;28;20403;-76
2022/08/28 06:54:31;;;;;;;12.50;4.70;;;;;;;;;;10406492;28;20021;-77
2022/08/28 06:59:31;;;;;;;12.90;4.65;;;;;;;;;;10422743;28;20052;-76
2022/08/28 07:04:32;;;;;;;10.80;4.82;;;;;;;;;;10423241;28;20025;-75
2022/08/28 07:09:32;;;;;;;9.77;4.43;;;;;;;;;;10422839;28;20021;-77
2022/08/28 07:14:33;;;;;;;12.55;4.72;;;;;;;;;;10407334;28;20028;-77
2022/08/28 07:19:33;;;;;;;11.03;3.57;;;;;;;;;;10428576;28;20052;-74
2022/08/28 07:24:33;;;;;;;13.67;4.50;;;;;;;;;;10414157;28;20032;-78
2022/08/28 07:29:34;;;;;;;11.93;3.85;;;;;;;;;;10430521;28;20022;-78
2022/08/28 07:34:36;;;;;;;13.98;3.88;;;;;;;;;;10413534;28;20026;-72
2022/08/28 07:39:37;;;;;;;8.88;3.47;;;;;;;;;;10414428;28;20017;-73
2022/08/28 07:44:49;;;;;;;9.88;3.33;;;;;;;;;;10413785;28;20059;-73
2022/08/28 07:49:52;;;;;;;22.60;3.83;;;;;;;;;;10412852;28;20032;-76
2022/08/28 07:54:53;;;;;;;10.23;4.57;;;;;;;;;;10429901;28;20024;-81
2022/08/28 07:59:53;;;;;;;16.05;3.38;;;;;;;;;;10412189;28;20497;-73
2022/08/28 08:04:53;;;;;;;10.68;3.40;;;;;;;;;;10412660;28;20027;-78
2022/08/28 08:09:53;;;;;;;15.57;3.83;;;;;;;;;;10428990;28;20075;-77
2022/08/28 08:14:55;;;;;;;9.13;3.28;;;;;;;;;;10428489;28;20025;-76
2022/08/28 08:19:55;;;;;;;16.42;3.97;;;;;;;;;;10411740;28;20086;-73
2022/08/28 08:24:55;;;;;;;20.00;5.10;;;;;;;;;;10411652;28;20018;-76
2022/08/28 08:29:55;;;;;;;9.98;2.70;;;;;;;;;;10427460;28;20238;-78
2022/08/28 08:34:56;;;;;;;8.10;3.42;;;;;;;;;;10427518;28;20037;-73
2022/08/28 08:39:56;;;;;;;7.17;3.10;;;;;;;;;;10410675;28;20036;-72
2022/08/28 08:44:57;;;;;;;9.85;3.60;;;;;;;;;;10412075;28;20022;-75
2022/08/28 08:49:59;;;;;;;11.07;3.08;;;;;;;;;;10426970;28;20025;-76
2022/08/28 08:55:06;;;;;;;14.82;3.63;;;;;;;;;;10410900;28;20105;-80
2022/08/28 09:00:08;;;;;;;12.68;4.05;;;;;;;;;;10410224;28;20022;-77
2022/08/28 09:05:11;;;;;;;19.67;4.57;;;;;;;;;;10410449;28;20523;-73
2022/08/28 09:10:12;;;;;;;10.77;3.53;;;;;;;;;;10410145;28;20029;-75
2022/08/28 09:15:12;;;;;;;14.35;3.97;;;;;;;;;;10409556;28;20117;-75
2022/08/28 09:20:15;;;;;;;15.93;3.17;;;;;;;;;;10409426;28;20049;-77
2022/08/28 09:25:34;;;;;;;10.15;3.42;;;;;;;;;;10409357;28;20024;-73
2022/08/28 09:30:36;;;;;;;13.68;3.58;;;;;;;;;;10408724;28;20040;-73
2022/08/28 09:35:36;;;;;;;11.13;3.47;;;;;;;;;;10410654;28;20021;-73
2022/08/28 09:46:00;;;;;;;9.10;3.40;;;;;;;;;;10409581;28;20555;-75
2022/08/28 09:51:03;;;;;;;9.45;3.63;;;;;;;;;;10424776;28;20052;-72
2022/08/28 09:56:03;;;;;;;15.93;4.10;;;;;;;;;;10409020;28;20029;-75
2022/08/28 10:01:09;;;;;;;9.77;3.53;;;;;;;;;;10408385;28;20489;-81
2022/08/28 10:06:17;;;;;;;13.20;2.80;;;;;;;;;;10425332;28;20035;-72
2022/08/28 10:11:31;;;;;;;13.27;3.13;;;;;;;;;;10408293;28;20033;-76
2022/08/28 10:16:40;;;;;;;10.90;3.57;;;;;;;;;;10407846;28;20025;-73
2022/08/28 10:21:48;;;;;;;5.32;2.65;;;;;;;;;;10406779;28;20049;-74
2022/08/28 10:26:55;;;;;;;11.20;2.47;;;;;;;;;;10407142;28;20346;-79
2022/08/28 10:32:01;;;;;;;10.32;2.75;;;;;;;;;;10407457;28;20453;-79
2022/08/28 10:37:17;;;;;;;12.02;2.53;;;;;;;;;;10408040;28;20041;-76
2022/08/28 10:42:24;;;;;;;15.23;3.25;;;;;;;;;;10423134;28;20028;-74
2022/08/28 10:47:25;;;;;;;13.35;2.58;;;;;;;;;;10407888;28;20029;-80
2022/08/28 10:52:29;;;;;;;9.20;2.30;;;;;;;;;;10406172;28;20043;-73
2022/08/28 10:57:29;;;;;;;;;;;;;;;;;;10406831;28;20033;-77
2022/08/28 11:02:30;;;;;;;8.02;3.05;;;;;;;;;;10407776;28;20706;-82
2022/08/28 11:07:33;;;;;;;11.43;2.47;;;;;;;;;;10405951;28;20033;-76
2022/08/28 11:12:36;;;;;;;10.23;3.17;;;;;;;;;;10423259;28;20030;-77
2022/08/28 11:17:39;;;;;;;5.78;2.50;;;;;;;;;;10405491;28;20029;-80
2022/08/28 11:22:48;;;;;;;12.82;3.58;;;;;;;;;;10405828;28;20065;-72
2022/08/28 11:28:07;;;;;;;9.10;3.85;;;;;;;;;;10388947;28;20507;-74
2022/08/28 11:33:28;;;;;;;16.30;4.60;;;;;;;;;;10405392;28;20097;-73
2022/08/28 11:38:40;;;;;;;8.95;4.38;;;;;;;;;;10405383;28;20028;-72
2022/08/28 11:43:42;;;;;;;11.18;4.07;;;;;;;;;;10405188;28;20071;-76
2022/08/28 11:48:50;;;;;;;18.30;4.72;;;;;;;;;;10404858;28;20534;-72
2022/08/28 11:54:11;;;;;;;11.50;4.53;;;;;;;;;;10406418;28;20029;-76
2022/08/28 11:59:11;;;;;;;11.38;4.18;;;;;;;;;;10404574;28;20041;-73
2022/08/28 12:04:13;;;;;;;12.43;4.13;;;;;;;;;;10408123;28;20107;-74
2022/08/28 12:09:22;;;;;;;14.98;4.07;;;;;;;;;;10412837;28;20018;-74
2022/08/28 12:14:26;;;;;;;9.63;3.50;;;;;;;;;;10411812;28;20036;-76
2022/08/28 12:19:29;;;;;;;20.60;4.35;;;;;;;;;;10411402;28;20061;-76
2022/08/28 12:24:29;;;;;;;12.35;4.32;;;;;;;;;;10411648;28;20056;-76
2022/08/28 12:29:31;;;;;;;9.18;4.20;;;;;;;;;;10429330;28;20039;-79
2022/08/28 12:34:37;;;;;;;11.52;3.95;;;;;;;;;;10427715;28;20037;-74
2022/08/28 12:39:37;;;;;;;7.63;3.78;;;;;;;;;;10410832;28;20055;-72
2022/08/28 12:44:38;;;;;;;10.00;4.27;;;;;;;;;;10410635;28;20103;-76
2022/08/28 12:49:38;;;;;;;15.63;4.53;;;;;;;;;;10410090;28;20128;-73
2022/08/28 12:54:38;;;;;;;9.68;3.72;;;;;;;;;;10412172;28;20272;-76
2022/08/28 12:59:43;;;;;;;13.60;3.63;;;;;;;;;;10409990;28;20025;-75
2022/08/28 13:04:49;;;;;;;7.25;2.83;;;;;;;;;;10409691;28;20025;-75
2022/08/28 13:09:50;;;;;;;6.47;2.97;;;;;;;;;;10410132;28;20475;-78
2022/08/28 13:14:51;;;;;;;17.95;4.18;;;;;;;;;;10410404;28;20095;-73
2022/08/28 13:20:00;;;;;;;6.13;3.63;;;;;;;;;;10425931;28;20493;-77
2022/08/28 13:25:01;;;;;;;5.53;3.42;;;;;;;;;;10408609;28;20029;-77
2022/08/28 13:30:04;;;;;;;13.70;3.42;;;;;;;;;;10409114;28;20108;-78
2022/08/28 13:35:16;;;;;;;7.82;3.30;;;;;;;;;;10426131;28;20058;-78
2022/08/28 13:40:18;;;;;;;9.95;3.28;;;;;;;;;;10408360;28;20083;-73
2022/08/28 13:45:18;;;;;;;10.25;3.40;;;;;;;;;;10408110;28;20021;-72
2022/08/28 13:50:18;;;;;;;7.72;4.20;;;;;;;;;;10407673;28;20036;-72
2022/08/28 13:55:19;;;;;;;9.27;3.88;;;;;;;;;;10409116;28;20037;-76
2022/08/28 14:00:19;;;;;;;10.27;3.60;;;;;;;;;;10407860;28;20037;-73
2022/08/28 14:05:19;;;;;;;18.53;5.10;;;;;;;;;;10407129;28;20033;-75
2022/08/28 14:10:20;;;;;;;15.85;5.13;;;;;;;;;;10407813;28;20021;-76
2022/08/28 14:15:21;;;;;;;12.43;4.28;;;;;;;;;;10408207;28;20025;-73
2022/08/28 14:20:21;;;;;;;5.35;3.08;;;;;;;;;;10406863;28;20076;-75
2022/08/28 14:25:21;;;;;;;9.65;3.15;;;;;;;;;;10408498;28;20029;-73
2022/08/28 14:30:24;;;;;;;8.60;3.60;;;;;;;;;;10406588;28;20025;-73
2022/08/28 14:35:24;;;;;;;8.57;2.65;;;;;;;;;;10406739;28;20025;-80
2022/08/28 14:40:25;;;;;;;14.80;5.05;;;;;;;;;;10423535;28;20026;-76
2022/08/28 14:45:25;;;;;;;11.07;3.67;;;;;;;;;;10423673;28;20480;-81
2022/08/28 14:50:25;;;;;;;10.73;4.05;;;;;;;;;;10405680;28;20119;-76
2022/08/28 14:55:26;;;;;;;10.20;3.80;;;;;;;;;;10408001;28;20033;-74
2022/08/28 15:00:27;;;;;;;10.63;3.87;;;;;;;;;;10407319;28;20029;-74
2022/08/28 15:05:27;;;;;;;17.27;3.92;;;;;;;;;;10405511;28;20022;-79
2022/08/28 15:10:28;;;;;;;12.57;4.15;;;;;;;;;;10422811;28;20037;-75
2022/08/28 15:15:28;;;;;;;12.02;4.15;;;;;;;;;;10422605;28;20116;-77
2022/08/28 15:20:28;;;;;;;10.20;4.20;;;;;;;;;;10405256;28;20493;-75
2022/08/28 15:25:29;;;;;;;9.75;3.90;;;;;;;;;;10405297;28;20125;-75
2022/08/28 15:30:29;;;;;;;12.23;4.25;;;;;;;;;;10406603;28;20072;-78
2022/08/28 15:35:29;;;;;;;12.35;4.72;;;;;;;;;;10405519;28;20069;-74
2022/08/28 15:45:48;;;;;;;15.32;5.32;;;;;;;;;;10414836;28;20022;-81
2022/08/28 15:50:49;;;;;;;13.03;4.97;;;;;;;;;;10429740;28;20029;-80
2022/08/28 15:55:49;;;;;;;10.73;4.60;;;;;;;;;;10413102;28;20510;-74
2022/08/28 16:00:49;;;;;;;12.37;4.47;;;;;;;;;;10412521;28;20031;-73
2022/08/28 16:05:49;;;;;;;9.07;4.32;;;;;;;;;;10429181;28;20036;-76
2022/08/28 16:10:50;;;;;;;13.48;4.88;;;;;;;;;;10428253;28;20029;-75
2022/08/28 16:15:51;;;;;;;10.15;4.90;;;;;;;;;;10412785;28;20022;-73
2022/08/28 16:20:51;;;;;;;14.73;5.88;;;;;;;;;;10412087;28;20057;-73
2022/08/28 16:25:51;;;;;;;12.07;5.47;;;;;;;;;;10412829;28;20128;-76
2022/08/28 16:30:51;;;;;;;14.63;5.97;;;;;;;;;;10412977;28;20024;-76
2022/08/28 16:35:52;;;;;;;14.75;5.75;;;;;;;;;;10427783;28;20539;-73
2022/08/28 16:40:52;;;;;;;13.30;5.43;;;;;;;;;;10410868;28;20095;-73
2022/08/28 16:45:52;;;;;;;14.60;5.97;;;;;;;;;;10410645;28;20033;-73
2022/08/28 16:50:53;;;;;;;20.17;6.00;;;;;;;;;;10409785;28;20025;-75
2022/08/28 16:55:53;;;;;;;16.53;5.90;;;;;;;;;;10411840;28;20548;-76
2022/08/28 17:00:53;;;;;;;11.95;6.00;;;;;;;;;;10410597;28;20534;-74
2022/08/28 17:05:54;;;;;;;19.93;6.87;;;;;;;;;;10411059;28;20032;-76
2022/08/28 17:10:54;;;;;;;23.33;6.07;;;;;;;;;;10409731;28;20036;-77
2022/08/28 17:15:55;;;;;;;18.73;6.20;;;;;;;;;;10411023;28;20108;-73
2022/08/28 17:26:22;;;;;;;11.65;6.20;;;;;;;;;;10387399;28;20112;-74
2022/08/28 17:31:22;;;;;;;14.88;6.47;;;;;;;;;;10409091;28;20658;-72
2022/08/28 17:36:22;;;;;;;12.30;5.90;;;;;;;;;;10409840;28;20112;-76
2022/08/28 17:41:22;;;;;;;14.57;6.45;;;;;;;;;;10408343;28;20025;-76
2022/08/28 17:46:24;;;;;;;11.68;6.38;;;;;;;;;;10425155;28;20036;-74
2022/08/28 17:51:25;;;;;;;16.95;6.25;;;;;;;;;;10407365;28;20035;-73
2022/08/28 17:56:25;;;;;;;16.73;6.25;;;;;;;;;;10396312;28;20412;-76
2022/08/28 18:01:26;;;;;;;15.30;6.05;;;;;;;;;;10393322;28;20026;-73
2022/08/28 18:06:27;;;;;;;14.85;6.35;;;;;;;;;;10398057;28;20125;-75
2022/08/28 18:11:27;;;;;;;13.13;6.82;;;;;;;;;;10400234;28;20022;-81
2022/08/28 18:16:30;;;;;;;16.90;7.63;;;;;;;;;;10407150;28;20021;-75
2022/08/28 18:21:30;;;;;;;15.65;6.45;;;;;;;;;;10406162;28;20053;-76
2022/08/28 18:26:30;;;;;;;12.87;6.07;;;;;;;;;;10405718;28;20072;-74
2022/08/28 18:31:30;;;;;;;13.83;6.97;;;;;;;;;;10405377;28;20022;-74
2022/08/28 18:36:31;;;;;;;17.73;7.95;;;;;;;;;;10392326;28;20087;-77
2022/08/28 18:41:31;;;;;;;10.80;6.75;;;;;;;;;;10383671;28;20025;-75
2022/08/28 18:46:32;;;;;;;18.45;6.97;;;;;;;;;;10363378;28;20025;-78
2022/08/28 18:51:32;;;;;;;15.47;7.33;;;;;;;;;;10388538;28;20475;-74
2022/08/28 18:56:32;;;;;;;13.15;7.28;;;;;;;;;;10382064;28;20705;-74
2022/08/28 19:01:33;;;;;;;23.00;8.67;;;;;;;;;;10375550;28;20411;-78
2022/08/28 19:06:34;;;;;;;15.00;9.65;;;;;;;;;;10397320;28;20148;-78
2022/08/28 19:11:35;;;;;;;15.20;7.18;;;;;;;;;;10379328;28;20014;-78
2022/08/28 19:16:35;;;;;;;19.55;6.55;;;;;;;;;;10383219;28;20109;-73
2022/08/28 19:21:35;;;;;;;15.38;7.40;;;;;;;;;;10381937;28;20068;-73
2022/08/28 19:26:37;;;;;;;18.38;8.18;;;;;;;;;;10394251;28;20029;-77
2022/08/28 19:31:37;;;;;;;25.98;7.90;;;;;;;;;;10400347;28;20014;-77
2022/08/28 19:36:38;;;;;;;15.80;7.13;;;;;;;;;;10379758;28;20026;-77
2022/08/28 19:41:38;;;;;;;20.95;7.47;;;;;;;;;;10398598;28;20033;-77
2022/08/28 19:46:38;;;;;;;21.23;8.13;;;;;;;;;;10413536;28;20435;-76
2022/08/28 19:51:39;;;;;;;19.40;7.20;;;;;;;;;;10410723;28;20113;-72
2022/08/28 19:56:40;;;;;;;17.25;8.63;;;;;;;;;;10375481;28;20095;-72
2022/08/28 20:01:43;;;;;;;16.40;8.68;;;;;;;;;;10399263;28;20088;-73
2022/08/28 20:06:44;;;;;;;17.92;8.45;;;;;;;;;;10398302;28;20133;-77
2022/08/28 20:11:45;;;;;;;21.98;8.65;;;;;;;;;;10401695;28;20032;-75
2022/08/28 20:16:50;;;;;;;14.63;8.18;;;;;;;;;;10399719;28;20487;-77
2022/08/28 20:21:50;;;;;;;20.45;7.93;;;;;;;;;;10392551;28;20053;-76
2022/08/28 20:26:51;;;;;;;16.85;9.10;;;;;;;;;;10396258;28;20029;-73
2022/08/28 20:31:51;;;;;;;17.10;6.78;;;;;;;;;;10399427;28;20024;-75
2022/08/28 20:36:52;;;;;;;13.63;7.65;;;;;;;;;;10396451;28;20562;-77
2022/08/28 20:41:52;;;;;;;13.88;7.70;;;;;;;;;;10412303;28;20376;-72
2022/08/28 20:46:52;;;;;;;11.05;7.18;;;;;;;;;;10400936;28;20022;-75
2022/08/28 20:51:55;;;;;;;14.05;7.82;;;;;;;;;;10397254;28;20025;-76
2022/08/28 20:56:56;;;;;;;13.88;6.55;;;;;;;;;;10411790;28;20079;-73
2022/08/28 21:01:59;;;;;;;11.70;7.10;;;;;;;;;;10394538;28;20100;-73
2022/08/28 21:06:59;;;;;;;17.52;8.63;;;;;;;;;;10402310;28;20278;-76
2022/08/28 21:11:59;;;;;;;11.20;6.63;;;;;;;;;;10398478;28;20022;-75
2022/08/28 21:17:00;;;;;;;17.90;7.80;;;;;;;;;;10393206;28;20084;-77
2022/08/28 21:22:00;;;;;;;14.33;7.40;;;;;;;;;;10389858;28;20085;-78
2022/08/28 21:27:01;;;;;;;20.37;8.13;;;;;;;;;;10399327;28;20063;-76
2022/08/28 21:32:01;;;;;;;20.65;9.55;;;;;;;;;;10394351;28;20080;-78
2022/08/28 21:37:02;;;;;;;20.77;7.72;;;;;;;;;;10395580;28;20018;-79
2022/08/28 21:42:02;;;;;;;17.92;8.60;;;;;;;;;;10396349;28;20033;-73
2022/08/28 21:47:03;;;;;;;23.03;9.10;;;;;;;;;;10389169;28;20025;-77
2022/08/28 21:52:03;;;;;;;13.18;7.63;;;;;;;;;;10387175;28;20017;-77
2022/08/28 21:57:03;;;;;;;16.52;8.70;;;;;;;;;;10384810;28;20512;-75
2022/08/28 22:02:04;;;;;;;10.07;7.55;;;;;;;;;;10393673;28;20033;-78
2022/08/28 22:07:05;;;;;;;18.15;9.88;;;;;;;;;;10396398;28;20025;-79
2022/08/28 22:12:07;;;;;;;18.23;8.60;;;;;;;;;;10392408;28;20028;-81
2022/08/28 22:17:08;;;;;;;17.67;8.23;;;;;;;;;;10388516;28;20026;-75
2022/08/28 22:27:28;;;;;;;15.15;8.75;;;;;;;;;;10398506;28;20042;-77
2022/08/28 22:32:28;;;;;;;17.10;8.07;;;;;;;;;;10387482;28;20272;-77
2022/08/28 22:37:28;;;;;;;18.02;8.25;;;;;;;;;;10397198;28;20099;-76
2022/08/28 22:42:29;;;;;;;16.27;7.28;;;;;;;;;;10387268;28;20030;-77
2022/08/28 22:47:30;;;;;;;19.52;8.40;;;;;;;;;;10387493;28;20026;-77
2022/08/28 22:52:31;;;;;;;23.05;8.48;;;;;;;;;;10398662;28;20452;-77
2022/08/28 22:57:31;;;;;;;34.27;9.83;;;;;;;;;;10391272;28;20113;-77
2022/08/28 23:02:31;;;;;;;14.85;8.13;;;;;;;;;;10387987;28;20370;-78
2022/08/28 23:07:32;;;;;;;14.83;7.93;;;;;;;;;;10387198;28;20021;-80
2022/08/28 23:12:33;;;;;;;16.23;8.30;;;;;;;;;;10393352;28;20043;-71
2022/08/28 23:17:33;;;;;;;15.05;8.27;;;;;;;;;;10396483;28;20112;-79
2022/08/28 23:22:34;;;;;;;14.35;7.55;;;;;;;;;;10396219;28;20050;-75
2022/08/28 23:27:34;;;;;;;13.25;9.38;;;;;;;;;;10387590;28;20091;-76
2022/08/28 23:32:34;;;;;;;16.58;8.95;;;;;;;;;;10398510;28;20136;-77
2022/08/28 23:37:35;;;;;;;10.98;7.95;;;;;;;;;;10392120;28;20087;-73
2022/08/28 23:42:36;;;;;;;14.95;8.57;;;;;;;;;;10386225;28;20025;-77
2022/08/28 23:47:36;;;;;;;11.68;8.00;;;;;;;;;;10390868;28;20026;-73
2022/08/28 23:52:37;;;;;;;15.77;8.45;;;;;;;;;;10388470;28;20021;-77
2022/08/28 23:57:37;;;;;;;21.45;9.60;;;;;;;;;;10392260;28;20117;-76
